createdAt,value
2018-03-30T00:02:15.766Z,3.90
2018-03-30T00:04:43.379Z,3.90
2018-03-30T00:07:10.905Z,3.90
2018-03-30T00:09:50.422Z,3.90
2018-03-30T00:12:17.983Z,3.90
2018-03-30T00:14:45.536Z,3.90
2018-03-30T00:17:13.846Z,3.80
2018-03-30T00:19:41.423Z,3.80
2018-03-30T00:22:08.951Z,3.80
2018-03-30T00:24:36.504Z,3.80
2018-03-30T00:27:04.034Z,3.80
2018-03-30T00:29:32.370Z,3.80
2018-03-30T00:31:59.899Z,3.80
2018-03-30T00:34:27.467Z,3.80
2018-03-30T00:36:55.014Z,3.80
2018-03-30T00:39:22.566Z,3.80
2018-03-30T00:41:50.866Z,3.70
2018-03-30T00:44:18.415Z,3.70
2018-03-30T00:46:46.012Z,3.70
2018-03-30T00:49:13.538Z,3.70
2018-03-30T00:51:41.090Z,3.70
2018-03-30T00:54:08.622Z,3.70
2018-03-30T00:56:36.186Z,3.70
2018-03-30T00:59:03.722Z,3.70
2018-03-30T01:01:31.274Z,3.60
2018-03-30T01:03:58.801Z,3.60
2018-03-30T01:06:26.398Z,3.60
2018-03-30T01:08:53.906Z,3.50
2018-03-30T01:11:21.458Z,3.60
2018-03-30T01:13:49.756Z,3.60
2018-03-30T01:16:17.311Z,3.60
2018-03-30T01:18:44.845Z,3.60
2018-03-30T01:21:13.169Z,3.60
2018-03-30T01:23:40.695Z,3.60
2018-03-30T01:26:09.018Z,3.50
2018-03-30T01:28:37.308Z,3.50
2018-03-30T01:31:04.867Z,3.50
2018-03-30T01:33:32.395Z,3.40
2018-03-30T01:35:59.950Z,3.40
2018-03-30T01:38:27.474Z,3.40
2018-03-30T01:40:55.797Z,3.30
2018-03-30T01:43:23.323Z,3.30
2018-03-30T01:45:51.638Z,3.20
2018-03-30T01:48:19.171Z,3.20
2018-03-30T01:50:46.731Z,3.20
2018-03-30T01:53:14.270Z,3.10
2018-03-30T01:55:42.594Z,3.00
2018-03-30T01:58:10.134Z,3.00
2018-03-30T02:00:37.691Z,3.10
2018-03-30T02:03:05.220Z,3.10
2018-03-30T02:05:32.778Z,3.10
2018-03-30T02:08:00.299Z,3.10
2018-03-30T02:10:27.855Z,3.10
2018-03-30T02:12:55.378Z,3.10
2018-03-30T02:15:22.922Z,3.00
2018-03-30T02:17:51.261Z,2.90
2018-03-30T02:20:18.788Z,2.90
2018-03-30T02:22:46.338Z,2.90
2018-03-30T02:25:14.621Z,2.90
2018-03-30T02:27:42.181Z,2.80
2018-03-30T02:30:09.707Z,2.80
2018-03-30T02:32:37.262Z,2.80
2018-03-30T02:35:04.800Z,2.70
2018-03-30T02:37:32.355Z,2.70
2018-03-30T02:39:59.879Z,2.60
2018-03-30T02:42:27.455Z,2.50
2018-03-30T02:44:54.992Z,2.50
2018-03-30T02:47:22.546Z,2.50
2018-03-30T02:49:50.843Z,2.50
2018-03-30T02:52:18.407Z,2.50
2018-03-30T02:54:45.935Z,2.40
2018-03-30T02:57:14.260Z,2.40
2018-03-30T02:59:41.787Z,2.40
2018-03-30T03:02:09.348Z,2.40
2018-03-30T03:04:36.883Z,2.40
2018-03-30T03:07:05.208Z,2.50
2018-03-30T03:09:32.744Z,2.50
2018-03-30T03:12:00.300Z,2.60
2018-03-30T03:14:28.594Z,2.50
2018-03-30T03:16:56.143Z,2.50
2018-03-30T03:19:23.683Z,2.40
2018-03-30T03:21:52.006Z,2.50
2018-03-30T03:24:19.571Z,2.50
2018-03-30T03:26:47.106Z,2.70
2018-03-30T03:29:14.636Z,2.70
2018-03-30T03:31:42.954Z,2.60
2018-03-30T03:34:10.482Z,2.60
2018-03-30T03:36:38.803Z,2.60
2018-03-30T03:39:06.339Z,2.70
2018-03-30T03:41:33.898Z,2.60
2018-03-30T03:44:01.436Z,2.50
2018-03-30T03:46:29.734Z,2.50
2018-03-30T03:48:57.290Z,2.50
2018-03-30T03:53:58.863Z,2.50
2018-03-30T03:56:26.394Z,2.40
2018-03-30T03:58:54.715Z,2.30
2018-03-30T04:01:22.246Z,2.30
2018-03-30T04:03:50.563Z,2.20
2018-03-30T04:06:18.090Z,2.20
2018-03-30T04:08:45.645Z,2.20
2018-03-30T04:11:13.183Z,2.10
2018-03-30T04:13:40.747Z,2.10
2018-03-30T04:16:09.049Z,2.20
2018-03-30T04:18:36.606Z,2.20
2018-03-30T04:21:04.894Z,2.30
2018-03-30T04:23:32.455Z,2.20
2018-03-30T04:25:59.995Z,2.20
2018-03-30T04:28:28.319Z,2.10
2018-03-30T04:30:55.851Z,2.10
2018-03-30T04:33:23.414Z,2.10
2018-03-30T04:35:50.971Z,2.10
2018-03-30T04:38:18.495Z,2.10
2018-03-30T04:40:46.815Z,2.20
2018-03-30T04:43:14.351Z,2.20
2018-03-30T04:45:42.679Z,2.10
2018-03-30T04:48:10.207Z,2.10
2018-03-30T04:50:37.763Z,2.10
2018-03-30T04:53:05.305Z,2.10
2018-03-30T04:55:33.631Z,2.00
2018-03-30T04:58:01.153Z,2.00
2018-03-30T05:00:28.706Z,2.00
2018-03-30T05:02:56.994Z,1.80
2018-03-30T05:05:24.565Z,1.70
2018-03-30T05:07:52.153Z,1.60
2018-03-30T05:10:19.683Z,1.50
2018-03-30T05:12:47.213Z,1.50
2018-03-30T05:15:15.547Z,1.40
2018-03-30T05:17:43.835Z,1.40
2018-03-30T05:20:11.372Z,1.40
2018-03-30T05:22:38.934Z,1.40
2018-03-30T05:25:06.468Z,1.40
2018-03-30T05:27:34.030Z,1.50
2018-03-30T05:30:01.561Z,1.60
2018-03-30T05:32:29.898Z,1.80
2018-03-30T05:34:57.437Z,1.70
2018-03-30T05:37:25.018Z,1.90
2018-03-30T05:39:52.552Z,2.00
2018-03-30T05:42:20.109Z,2.10
2018-03-30T05:44:47.642Z,2.10
2018-03-30T05:47:15.979Z,2.30
2018-03-30T05:49:45.165Z,2.30
2018-03-30T05:52:12.798Z,2.30
2018-03-30T05:54:40.336Z,2.40
2018-03-30T05:57:08.666Z,2.50
2018-03-30T05:59:36.226Z,2.50
2018-03-30T06:02:03.779Z,2.60
2018-03-30T06:04:31.402Z,2.60
2018-03-30T06:06:59.732Z,2.80
2018-03-30T06:09:27.273Z,2.70
2018-03-30T06:11:55.237Z,2.80
2018-03-30T06:14:22.805Z,3.00
2018-03-30T06:16:50.367Z,3.20
2018-03-30T06:19:17.916Z,3.30
2018-03-30T06:21:45.797Z,3.50
2018-03-30T06:24:13.355Z,3.60
2018-03-30T06:26:40.991Z,3.70
2018-03-30T06:29:09.371Z,3.90
2018-03-30T06:31:36.939Z,3.90
2018-03-30T06:54:02.370Z,4.20
2018-03-30T06:56:30.703Z,4.40
2018-03-30T06:58:58.252Z,4.40
2018-03-30T07:01:26.102Z,4.50
2018-03-30T07:03:53.706Z,4.50
2018-03-30T07:06:21.720Z,4.70
2018-03-30T07:08:49.440Z,4.70
2018-03-30T07:11:17.019Z,5.00
2018-03-30T07:13:45.338Z,5.60
2018-03-30T07:16:12.869Z,5.60
2018-03-30T07:18:41.191Z,5.50
2018-03-30T07:21:08.720Z,5.50
2018-03-30T07:23:36.640Z,5.50
2018-03-30T07:26:04.214Z,5.60
2018-03-30T07:28:31.777Z,5.90
2018-03-30T07:30:59.604Z,6.20
2018-03-30T07:33:27.199Z,6.40
2018-03-30T07:35:54.730Z,6.40
2018-03-30T07:38:22.284Z,6.50
2018-03-30T07:40:50.170Z,6.50
2018-03-30T07:43:17.719Z,6.50
2018-03-30T07:45:45.242Z,6.70
2018-03-30T07:48:12.983Z,6.50
2018-03-30T07:50:41.710Z,7.00
2018-03-30T07:53:10.083Z,7.20
2018-03-30T07:55:37.655Z,7.10
2018-03-30T07:58:06.026Z,7.40
2018-03-30T08:00:33.561Z,7.40
2018-03-30T08:03:01.103Z,7.20
2018-03-30T08:05:29.642Z,7.50
2018-03-30T08:07:57.171Z,7.50
2018-03-30T08:10:24.728Z,7.40
2018-03-30T08:12:52.250Z,7.50
2018-03-30T08:15:19.797Z,7.30
2018-03-30T08:17:47.635Z,7.20
2018-03-30T08:20:15.192Z,7.10
2018-03-30T08:22:42.714Z,7.30
2018-03-30T08:25:11.054Z,7.60
2018-03-30T08:27:39.378Z,7.90
2018-03-30T08:32:42.824Z,8.10
2018-03-30T08:35:10.826Z,8.00
2018-03-30T08:37:38.348Z,7.90
2018-03-30T08:40:06.116Z,7.90
2018-03-30T08:42:33.647Z,8.20
2018-03-30T08:45:01.954Z,8.50
2018-03-30T08:47:29.474Z,8.50
2018-03-30T08:49:57.787Z,8.70
2018-03-30T08:52:25.310Z,8.70
2018-03-30T08:54:53.623Z,8.90
2018-03-30T08:57:21.142Z,8.90
2018-03-30T08:59:49.465Z,9.30
2018-03-30T09:02:16.987Z,9.30
2018-03-30T09:04:45.270Z,9.40
2018-03-30T09:07:13.586Z,9.60
2018-03-30T09:09:41.102Z,9.60
2018-03-30T09:12:09.416Z,9.60
2018-03-30T09:14:36.937Z,9.60
2018-03-30T09:17:05.261Z,9.60
2018-03-30T09:19:32.787Z,9.60
2018-03-30T09:22:00.342Z,9.40
2018-03-30T09:24:27.870Z,9.30
2018-03-30T09:26:55.431Z,9.50
2018-03-30T09:29:22.960Z,9.70
2018-03-30T09:31:50.527Z,9.70
2018-03-30T09:34:18.054Z,10.00
2018-03-30T09:36:59.147Z,10.10
2018-03-30T09:39:26.685Z,10.10
2018-03-30T09:41:54.238Z,10.20
2018-03-30T09:44:21.771Z,10.40
2018-03-30T09:46:49.305Z,10.40
2018-03-30T09:49:16.859Z,10.40
2018-03-30T09:51:44.388Z,10.20
2018-03-30T09:54:11.950Z,10.50
2018-03-30T09:56:39.479Z,10.70
2018-03-30T09:59:07.799Z,10.80
2018-03-30T10:01:35.328Z,10.80
2018-03-30T10:04:03.647Z,11.20
2018-03-30T10:06:31.169Z,11.20
2018-03-30T10:08:58.723Z,11.60
2018-03-30T10:11:27.014Z,11.80
2018-03-30T10:13:54.558Z,11.80
2018-03-30T10:16:22.848Z,12.10
2018-03-30T10:18:50.404Z,12.10
2018-03-30T10:21:17.934Z,12.10
2018-03-30T10:23:45.486Z,12.30
2018-03-30T10:26:13.026Z,12.40
2018-03-30T10:28:40.586Z,12.20
2018-03-30T10:31:08.116Z,12.30
2018-03-30T10:33:35.666Z,12.50
2018-03-30T10:36:03.761Z,12.70
2018-03-30T10:38:32.145Z,12.50
2018-03-30T10:41:00.116Z,12.50
2018-03-30T10:43:27.684Z,12.70
2018-03-30T10:45:55.203Z,12.90
2018-03-30T10:48:22.759Z,13.00
2018-03-30T10:50:50.289Z,12.50
2018-03-30T10:53:18.082Z,12.20
2018-03-30T10:55:46.374Z,12.80
2018-03-30T10:58:13.936Z,12.80
2018-03-30T11:00:41.463Z,13.00
2018-03-30T11:03:09.780Z,12.80
2018-03-30T11:05:37.306Z,12.70
2018-03-30T11:08:05.616Z,12.90
2018-03-30T11:10:33.138Z,12.90
2018-03-30T11:13:01.454Z,12.80
2018-03-30T11:15:28.978Z,12.80
2018-03-30T11:17:57.374Z,12.50
2018-03-30T11:20:24.866Z,12.50
2018-03-30T11:22:52.422Z,12.60
2018-03-30T11:25:20.770Z,12.30
2018-03-30T11:27:48.326Z,12.30
2018-03-30T11:30:15.862Z,12.40
2018-03-30T11:32:43.421Z,12.10
2018-03-30T11:35:10.948Z,12.40
2018-03-30T11:37:38.470Z,12.30
2018-03-30T11:40:06.023Z,11.90
2018-03-30T11:42:33.557Z,11.80
2018-03-30T11:45:01.110Z,11.90
2018-03-30T11:47:28.642Z,12.00
2018-03-30T11:49:56.194Z,12.10
2018-03-30T11:52:23.740Z,11.80
2018-03-30T11:54:51.294Z,11.40
2018-03-30T11:57:18.826Z,11.20
2018-03-30T11:59:47.150Z,11.30
2018-03-30T12:02:14.680Z,11.30
2018-03-30T12:04:42.994Z,11.40
2018-03-30T12:07:10.518Z,11.30
2018-03-30T12:09:38.080Z,11.30
2018-03-30T12:12:05.620Z,11.30
2018-03-30T12:14:33.938Z,11.00
2018-03-30T12:17:01.462Z,11.00
2018-03-30T12:19:29.778Z,11.20
2018-03-30T12:21:57.298Z,11.20
2018-03-30T12:24:25.705Z,11.50
2018-03-30T12:26:53.177Z,11.50
2018-03-30T12:29:20.732Z,11.60
2018-03-30T12:31:48.249Z,11.60
2018-03-30T12:34:16.561Z,12.00
2018-03-30T12:36:44.082Z,12.00
2018-03-30T12:39:12.406Z,11.80
2018-03-30T12:41:39.930Z,11.80
2018-03-30T12:44:08.255Z,10.90
2018-03-30T12:46:35.881Z,10.90
2018-03-30T12:49:03.495Z,10.80
2018-03-30T12:51:31.021Z,10.60
2018-03-30T12:53:58.574Z,10.90
2018-03-30T12:56:26.099Z,10.80
2018-03-30T12:58:54.427Z,10.40
2018-03-30T13:01:21.961Z,10.30
2018-03-30T13:03:49.518Z,10.20
2018-03-30T13:06:17.045Z,9.70
2018-03-30T13:08:45.364Z,9.30
2018-03-30T13:11:12.894Z,9.30
2018-03-30T13:13:40.467Z,9.40
2018-03-30T13:16:08.753Z,9.20
2018-03-30T13:18:36.305Z,9.20
2018-03-30T13:21:03.831Z,9.10
2018-03-30T13:23:31.386Z,9.10
2018-03-30T13:25:58.910Z,8.90
2018-03-30T13:28:26.463Z,8.80
2018-03-30T13:30:53.990Z,8.70
2018-03-30T13:33:22.319Z,8.40
2018-03-30T13:35:49.846Z,8.40
2018-03-30T13:38:17.398Z,8.40
2018-03-30T13:40:44.931Z,8.30
2018-03-30T13:43:12.478Z,8.20
2018-03-30T13:45:40.006Z,8.20
2018-03-30T13:48:07.526Z,8.20
2018-03-30T13:50:45.754Z,7.80
2018-03-30T13:53:23.995Z,7.80
2018-03-30T13:55:52.437Z,7.70
2018-03-30T13:58:29.789Z,7.70
2018-03-30T14:04:12.159Z,7.60
2018-03-30T14:06:50.404Z,7.60
2018-03-30T14:09:20.843Z,7.50
2018-03-30T14:11:59.703Z,7.50
2018-03-30T14:14:28.016Z,7.20
2018-03-30T14:17:01.125Z,7.20
2018-03-30T14:19:33.116Z,6.90
2018-03-30T14:22:23.346Z,7.00
2018-03-30T14:24:51.701Z,6.90
2018-03-30T14:27:39.495Z,7.00
2018-03-30T14:30:13.507Z,7.00
2018-03-30T14:32:42.578Z,7.00
2018-03-30T14:35:14.814Z,7.00
2018-03-30T14:37:46.543Z,7.30
2018-03-30T14:40:25.794Z,7.30
2018-03-30T14:42:57.030Z,7.30
2018-03-30T14:45:30.267Z,7.40
2018-03-30T14:47:57.794Z,7.30
2018-03-30T14:50:37.922Z,7.10
2018-03-30T14:53:16.995Z,6.90
2018-03-30T14:56:01.923Z,6.80
2018-03-30T14:58:33.970Z,6.80
2018-03-30T15:07:25.350Z,6.80
2018-03-30T15:10:11.099Z,6.60
2018-03-30T15:12:43.110Z,6.60
2018-03-30T15:15:11.535Z,6.80
2018-03-30T15:17:39.902Z,6.60
2018-03-30T15:20:13.779Z,6.70
2018-03-30T15:22:53.161Z,6.60
2018-03-30T15:25:36.419Z,6.70
2018-03-30T15:28:19.673Z,6.70
2018-03-30T15:31:06.821Z,6.80
2018-03-30T15:33:39.114Z,6.60
2018-03-30T15:36:07.451Z,6.60
2018-03-30T15:38:34.978Z,6.60
2018-03-30T15:41:02.574Z,6.60
2018-03-30T15:43:30.093Z,6.50
2018-03-30T15:46:15.202Z,6.50
2018-03-30T15:48:42.727Z,6.60
2018-03-30T15:51:10.988Z,6.60
2018-03-30T15:53:38.051Z,6.60
2018-03-30T15:56:07.447Z,6.60
2018-03-30T15:58:34.994Z,6.60
2018-03-30T16:01:02.520Z,6.60
2018-03-30T16:03:30.831Z,6.60
2018-03-30T16:05:58.358Z,6.60
2018-03-30T16:08:26.670Z,6.50
2018-03-30T16:11:05.054Z,6.50
2018-03-30T16:13:33.383Z,6.40
2018-03-30T16:16:00.907Z,6.40
2018-03-30T16:21:30.618Z,6.50
2018-03-30T16:23:58.675Z,6.40
2018-03-30T16:26:26.478Z,6.50
2018-03-30T16:28:53.534Z,6.50
2018-03-30T16:31:20.566Z,6.40
2018-03-30T16:33:47.622Z,6.50
2018-03-30T16:36:14.654Z,6.50
2018-03-30T16:38:41.728Z,6.50
2018-03-30T16:41:08.758Z,6.50
2018-03-30T16:43:35.820Z,6.30
2018-03-30T16:46:02.869Z,6.30
2018-03-30T16:48:30.056Z,6.30
2018-03-30T16:50:57.099Z,6.30
2018-03-30T16:53:24.162Z,6.30
2018-03-30T17:07:44.338Z,7.20
2018-03-30T17:10:21.691Z,7.20
2018-03-30T17:12:48.738Z,7.10
2018-03-30T17:15:15.795Z,6.80
2018-03-30T17:17:42.826Z,6.80
2018-03-30T17:20:09.880Z,6.70
2018-03-30T17:22:36.918Z,6.80
2018-03-30T17:25:03.978Z,6.50
2018-03-30T17:27:31.067Z,6.40
2018-03-30T17:29:58.135Z,6.40
2018-03-30T17:32:25.347Z,6.30
2018-03-30T17:34:52.410Z,6.30
2018-03-30T17:37:19.442Z,6.20
2018-03-30T17:39:46.503Z,6.20
2018-03-30T17:42:13.531Z,6.20
2018-03-30T17:44:40.596Z,6.20
2018-03-30T17:47:07.634Z,6.20
2018-03-30T17:49:34.716Z,6.20
2018-03-30T17:52:02.599Z,6.20
2018-03-30T17:54:29.638Z,6.10
2018-03-30T17:56:57.462Z,6.20
2018-03-30T17:59:24.505Z,6.20
2018-03-30T18:01:51.582Z,6.20
2018-03-30T18:04:21.478Z,6.20
2018-03-30T18:06:48.763Z,6.10
2018-03-30T18:09:16.565Z,6.10
2018-03-30T18:11:43.628Z,6.10
2018-03-30T18:14:10.672Z,6.10
2018-03-30T18:16:37.732Z,6.10
2018-03-30T18:19:04.771Z,6.10
2018-03-30T18:21:32.599Z,6.10
2018-03-30T18:23:59.635Z,6.10
2018-03-30T18:26:27.465Z,6.20
2018-03-30T18:28:54.503Z,6.10
2018-03-30T18:31:21.546Z,6.10
2018-03-30T18:33:48.601Z,6.10
2018-03-30T18:36:15.643Z,6.10
2018-03-30T18:38:42.724Z,6.00
2018-03-30T18:41:10.546Z,6.00
2018-03-30T18:43:37.608Z,6.00
2018-03-30T18:46:04.654Z,6.00
2018-03-30T18:48:31.722Z,6.00
2018-03-30T18:50:58.992Z,6.00
2018-03-30T18:53:26.179Z,6.00
2018-03-30T18:55:53.222Z,6.00
2018-03-30T18:58:20.284Z,6.00
2018-03-30T19:00:47.314Z,6.00
2018-03-30T19:03:14.374Z,6.00
2018-03-30T19:05:41.416Z,6.00
2018-03-30T19:08:08.480Z,6.00
2018-03-30T19:10:35.515Z,5.90
2018-03-30T19:13:02.578Z,5.90
2018-03-30T19:15:29.624Z,5.90
2018-03-30T19:17:56.664Z,5.90
2018-03-30T19:20:23.721Z,5.90
2018-03-30T19:22:50.770Z,5.90
2018-03-30T19:25:17.840Z,5.90
2018-03-30T19:27:44.880Z,5.80
2018-03-30T19:30:11.979Z,5.80
2018-03-30T19:32:39.792Z,5.80
2018-03-30T19:35:06.855Z,5.80
2018-03-30T19:37:34.049Z,5.80
2018-03-30T19:40:01.146Z,5.70
2018-03-30T19:42:28.509Z,5.70
2018-03-30T19:44:55.668Z,5.60
2018-03-30T19:47:22.775Z,5.70
2018-03-30T19:49:49.890Z,5.60
2018-03-30T19:52:17.695Z,5.50
2018-03-30T19:54:44.759Z,5.50
2018-03-30T19:57:11.798Z,5.40
2018-03-30T19:59:39.063Z,5.40
2018-03-30T20:02:06.147Z,5.30
2018-03-30T20:04:33.211Z,5.40
2018-03-30T20:07:01.014Z,5.30
2018-03-30T20:09:28.378Z,5.20
2018-03-30T20:11:56.258Z,5.20
2018-03-30T20:14:23.287Z,5.20
2018-03-30T20:16:50.349Z,5.20
2018-03-30T20:19:17.394Z,5.20
2018-03-30T20:21:44.454Z,5.10
2018-03-30T20:24:11.494Z,5.20
2018-03-30T20:26:39.331Z,5.30
2018-03-30T20:29:06.366Z,5.30
2018-03-30T20:31:33.431Z,5.40
2018-03-30T20:34:00.487Z,5.40
2018-03-30T20:36:27.554Z,5.40
2018-03-30T20:38:54.607Z,5.30
2018-03-30T20:41:22.430Z,5.20
2018-03-30T20:43:49.470Z,5.10
2018-03-30T20:46:16.544Z,5.10
2018-03-30T20:48:43.587Z,5.20
2018-03-30T20:51:10.811Z,5.20
2018-03-30T20:53:37.915Z,5.10
2018-03-30T20:56:04.959Z,5.10
2018-03-30T20:58:32.041Z,5.10
2018-03-30T21:00:59.850Z,5.10
2018-03-30T21:03:26.934Z,5.10
2018-03-30T21:05:53.977Z,5.10
2018-03-30T21:08:21.099Z,5.10
2018-03-30T21:10:48.143Z,5.10
2018-03-30T21:13:15.207Z,5.00
2018-03-30T21:15:42.274Z,5.00
2018-03-30T21:18:09.342Z,4.90
2018-03-30T21:20:36.384Z,4.90
2018-03-30T21:23:03.571Z,4.90
2018-03-30T21:25:30.611Z,4.90
2018-03-30T21:27:58.439Z,4.90
2018-03-30T21:30:25.570Z,4.90
2018-03-30T21:32:52.642Z,4.80
2018-03-30T21:35:19.709Z,4.80
2018-03-30T21:37:47.536Z,4.70
2018-03-30T21:40:14.610Z,4.70
2018-03-30T21:42:41.746Z,4.70
2018-03-30T21:45:08.808Z,4.60
2018-03-30T21:47:35.847Z,4.70
2018-03-30T21:50:02.916Z,4.70
2018-03-30T21:52:30.749Z,4.60
2018-03-30T21:54:57.815Z,4.60
2018-03-30T21:57:24.855Z,4.60
2018-03-30T21:59:51.934Z,4.70
2018-03-30T22:02:19.755Z,4.70
2018-03-30T22:04:46.814Z,4.60
2018-03-30T22:07:13.862Z,4.70
2018-03-30T22:09:40.934Z,4.60
2018-03-30T22:12:07.967Z,4.60
2018-03-30T22:14:35.035Z,4.60
2018-03-30T22:17:02.848Z,4.60
2018-03-30T22:19:29.911Z,4.60
2018-03-30T22:21:56.959Z,4.60
2018-03-30T22:24:24.021Z,4.60
2018-03-30T22:26:51.058Z,4.60
2018-03-30T22:29:18.127Z,4.60
2018-03-30T22:31:45.179Z,4.60
2018-03-30T22:34:12.250Z,4.60
2018-03-30T22:36:40.050Z,4.50
2018-03-30T22:39:07.114Z,4.50
2018-03-30T22:41:34.156Z,4.40
2018-03-30T22:44:01.219Z,4.40
2018-03-30T22:46:28.263Z,4.40
2018-03-30T22:48:55.367Z,4.40
2018-03-30T22:51:22.411Z,4.50
2018-03-30T22:53:50.248Z,4.50
2018-03-30T22:56:17.299Z,4.50
2018-03-30T22:58:44.363Z,4.40
2018-03-30T23:01:12.173Z,4.50
2018-03-30T23:03:39.352Z,4.40
2018-03-30T23:06:06.490Z,4.40
2018-03-30T23:08:34.298Z,4.60
2018-03-30T23:11:02.126Z,4.60
2018-03-30T23:13:29.171Z,4.60
2018-03-30T23:15:56.238Z,4.50
2018-03-30T23:18:23.287Z,4.50
2018-03-30T23:20:50.354Z,4.50
2018-03-30T23:23:18.159Z,4.50
2018-03-30T23:25:45.225Z,4.50
2018-03-30T23:28:12.270Z,4.50
2018-03-30T23:30:39.334Z,4.60
2018-03-30T23:33:06.377Z,4.50
2018-03-30T23:35:33.441Z,4.40
2018-03-30T23:38:00.482Z,4.40
2018-03-30T23:40:27.547Z,4.40
2018-03-30T23:42:55.360Z,4.40
2018-03-30T23:45:22.425Z,4.40
2018-03-30T23:47:49.467Z,4.30
2018-03-30T23:50:16.818Z,4.30
2018-03-30T23:52:43.855Z,4.30
2018-03-30T23:55:10.923Z,4.30
2018-03-30T23:57:37.975Z,4.30
